Time;durP1;ratioP1;P1;durP2;ratioP2;P2;SDS_P1;SDS_P2;PMS_P1;PMS_P2;Temp;Humidity;BMP_temperature;BMP_pressure;BME280_temperature;BME280_humidity;BME280_pressure;Samples;Min_cycle;Max_cycle;Signal;HPM_P1;HPM_P2
2021/03/02 00:01:38;;;;;;;117.60;59.75;;;;;;;0.16;82.22;102482.59;1677475;84;21093;-72
2021/03/02 00:04:04;;;;;;;100.30;49.25;;;;;;;0.07;82.25;102476.32;1695257;84;21163;-72
2021/03/02 00:06:31;;;;;;;110.85;53.08;;;;;;;-0.02;82.27;102477.95;1695582;84;21156;-72
2021/03/02 00:08:57;;;;;;;110.32;51.23;;;;;;;-0.03;82.28;102485.41;1695214;84;21205;-72
2021/03/02 00:11:24;;;;;;;106.07;51.90;;;;;;;-0.05;82.30;102476.75;1695472;84;21282;-72
2021/03/02 00:13:50;;;;;;;107.90;50.28;;;;;;;-0.08;82.32;102477.72;1695517;84;21213;-72
2021/03/02 00:16:26;;;;;;;99.92;48.15;;;;;;;-0.11;82.33;102475.66;1695380;84;21149;-72
2021/03/02 00:18:56;;;;;;;99.45;45.10;;;;;;;-0.12;82.31;102472.62;1695678;84;21173;-72
2021/03/02 00:21:26;;;;;;;106.00;47.80;;;;;;;-0.11;82.32;102469.09;1694721;84;21224;-71
2021/03/02 00:23:53;;;;;;;104.53;51.70;;;;;;;-0.08;82.29;102468.99;1695218;84;21236;-71
2021/03/02 00:26:21;;;;;;;192.07;99.58;;;;;;;-0.05;82.29;102474.13;1695431;84;21187;-72
2021/03/02 00:28:50;;;;;;;113.80;60.45;;;;;;;-0.05;82.32;102468.89;1695605;84;21120;-72
2021/03/02 00:31:16;;;;;;;104.87;52.08;;;;;;;-0.10;82.36;102468.17;1695730;84;21593;-72
2021/03/02 00:33:45;;;;;;;113.92;52.53;;;;;;;-0.16;82.39;102464.45;1695428;84;21508;-72
2021/03/02 00:36:11;;;;;;;108.20;51.65;;;;;;;-0.15;82.40;102463.55;1667806;84;21180;-72
2021/03/02 00:38:38;;;;;;;109.67;54.98;;;;;;;-0.16;82.41;102459.20;1695276;84;21601;-72
2021/03/02 00:41:05;;;;;;;96.72;48.23;;;;;;;-0.15;82.40;102463.55;1694894;84;21157;-72
2021/03/02 00:43:31;;;;;;;334.15;132.35;;;;;;;-0.17;82.45;102465.34;1695165;84;21141;-72
2021/03/02 00:45:57;;;;;;;118.08;51.80;;;;;;;-0.20;82.45;102461.07;1695451;84;21526;-73
2021/03/02 00:48:24;;;;;;;83.65;43.20;;;;;;;-0.21;82.46;102466.38;1695524;84;21163;-72
2021/03/02 00:50:50;;;;;;;96.08;45.67;;;;;;;-0.20;82.48;102466.77;1695329;84;21140;-72
2021/03/02 00:53:16;;;;;;;107.12;48.65;;;;;;;-0.20;82.47;102464.14;1695447;83;21185;-72
2021/03/02 00:55:42;;;;;;;111.12;54.40;;;;;;;-0.21;82.49;102466.38;1695352;84;21562;-72
2021/03/02 00:58:09;;;;;;;138.77;61.40;;;;;;;-0.27;82.51;102467.88;1695490;84;21177;-72
2021/03/02 01:00:35;;;;;;;118.65;55.95;;;;;;;-0.34;82.54;102468.98;1695250;84;21130;-72
2021/03/02 01:03:01;;;;;;;100.40;47.88;;;;;;;-0.41;82.55;102463.53;1695170;84;21208;-72
2021/03/02 01:05:28;;;;;;;109.07;52.67;;;;;;;-0.47;82.59;102465.05;1677205;84;21120;-72
2021/03/02 01:07:54;;;;;;;99.67;48.28;;;;;;;-0.52;82.61;102460.80;1695227;84;21184;-72
2021/03/02 01:10:21;;;;;;;95.47;47.08;;;;;;;-0.55;82.63;102460.91;1695524;84;21248;-72
2021/03/02 01:12:47;;;;;;;93.75;44.30;;;;;;;-0.56;82.65;102456.56;1695018;84;21593;-72
2021/03/02 01:15:14;;;;;;;86.53;43.25;;;;;;;-0.57;82.66;102457.48;1695293;83;21149;-72
2021/03/02 01:17:41;;;;;;;88.35;42.30;;;;;;;-0.54;82.67;102461.77;1695302;84;21627;-72
2021/03/02 01:20:08;;;;;;;245.78;111.62;;;;;;;-0.51;82.67;102458.59;1695534;84;21165;-72
2021/03/02 01:22:34;;;;;;;142.65;64.58;;;;;;;-0.49;82.68;102454.59;1695193;84;21188;-72
2021/03/02 01:25:01;;;;;;;110.52;51.28;;;;;;;-0.51;82.71;102450.73;1695432;84;21164;-72
2021/03/02 01:27:27;;;;;;;112.52;50.75;;;;;;;-0.48;82.74;102454.15;1695463;84;21534;-72
2021/03/02 01:29:53;;;;;;;110.08;50.28;;;;;;;-0.48;82.74;102455.45;1695265;84;21132;-72
2021/03/02 01:32:20;;;;;;;99.67;47.33;;;;;;;-0.53;82.74;102451.22;1695550;84;21156;-72
2021/03/02 01:34:46;;;;;;;99.15;47.55;;;;;;;-0.57;82.75;102450.94;1695279;84;21214;-72
2021/03/02 01:37:12;;;;;;;107.58;51.00;;;;;;;-0.64;82.77;102452.04;1695108;84;21211;-72
2021/03/02 01:39:38;;;;;;;107.22;50.58;;;;;;;-0.70;82.78;102445.66;1695232;84;21597;-72
2021/03/02 01:42:05;;;;;;;108.57;51.48;;;;;;;-0.76;82.80;102443.23;1695362;84;21153;-72
2021/03/02 01:44:31;;;;;;;112.22;53.00;;;;;;;-0.77;82.81;102441.52;1694800;83;21156;-72
2021/03/02 01:46:58;;;;;;;106.03;50.50;;;;;;;-0.79;82.81;102431.55;1695388;84;21221;-72
2021/03/02 01:49:24;;;;;;;124.10;55.43;;;;;;;-0.80;82.82;102431.14;1695461;84;21597;-72
2021/03/02 01:51:51;;;;;;;126.62;55.50;;;;;;;-0.78;82.82;102430.66;1695089;84;21172;-72
2021/03/02 01:54:17;;;;;;;127.00;60.70;;;;;;;-0.76;82.83;102434.52;1695256;83;21192;-72
2021/03/02 01:56:43;;;;;;;143.30;59.27;;;;;;;-0.74;82.86;102430.94;1695286;84;21636;-72
2021/03/02 01:59:11;;;;;;;130.85;54.20;;;;;;;-0.73;82.87;102431.34;1695392;84;21277;-72
2021/03/02 02:01:37;;;;;;;114.03;55.52;;;;;;;-0.75;82.90;102429.25;1695221;84;21626;-72
2021/03/02 02:04:21;;;;;;;109.12;52.40;;;;;;;-0.78;82.90;102432.41;1695313;83;21183;-72
2021/03/02 02:07:07;;;;;;;99.40;46.65;;;;;;;-0.81;82.92;102418.94;1677247;84;21105;-71
2021/03/02 02:09:54;;;;;;;94.85;44.20;;;;;;;-0.84;82.92;102420.34;1694857;84;21188;-72
2021/03/02 02:12:29;;;;;;;94.07;44.80;;;;;;;-0.82;82.91;102419.00;1695259;83;21204;-72
2021/03/02 02:15:21;;;;;;;100.47;47.67;;;;;;;-0.78;82.88;102414.94;1695304;83;21192;-72
2021/03/02 02:18:09;;;;;;;99.45;46.95;;;;;;;-0.82;82.89;102412.01;1677271;84;21546;-72
2021/03/02 02:21:08;;;;;;;100.87;49.42;;;;;;;-0.84;82.91;102426.89;1677267;84;21172;-72
2021/03/02 02:24:03;;;;;;;96.35;45.80;;;;;;;-0.88;82.94;102420.03;1695337;84;21180;-73
2021/03/02 02:26:47;;;;;;;101.62;48.45;;;;;;;-0.86;82.92;102420.00;1695162;84;21212;-73
2021/03/02 02:29:15;;;;;;;98.97;47.27;;;;;;;-0.84;82.92;102428.66;1695461;84;21157;-72
2021/03/02 02:31:42;;;;;;;107.87;50.58;;;;;;;-0.87;82.98;102413.04;1695333;84;21177;-73
2021/03/02 02:34:13;;;;;;;109.85;51.45;;;;;;;-0.90;82.97;102412.69;1695261;84;21558;-73
2021/03/02 02:36:39;;;;;;;104.58;47.70;;;;;;;-0.94;82.95;102421.54;1677443;84;21084;-73
2021/03/02 02:39:06;;;;;;;115.75;51.73;;;;;;;-0.97;82.95;102417.71;1695412;84;21594;-73
2021/03/02 02:41:32;;;;;;;96.00;47.35;;;;;;;-0.98;82.96;102421.22;1695243;84;21243;-73
2021/03/02 02:43:58;;;;;;;92.55;45.67;;;;;;;-1.00;82.97;102423.05;1644250;84;21554;-73
2021/03/02 02:46:24;;;;;;;108.17;51.80;;;;;;;-1.02;83.01;102422.22;1698623;84;21148;-73
2021/03/02 02:48:51;;;;;;;108.40;51.13;;;;;;;-1.01;83.03;102416.09;1701770;84;21171;-73
2021/03/02 02:51:18;;;;;;;98.07;49.27;;;;;;;-0.97;83.04;102418.16;1705979;82;21664;-73
2021/03/02 02:53:44;;;;;;;107.78;51.40;;;;;;;-0.97;83.05;102420.33;1698864;84;21212;-73
2021/03/02 02:56:11;;;;;;;110.83;51.00;;;;;;;-0.98;83.10;102415.98;1698850;84;21171;-73
2021/03/02 02:58:42;;;;;;;111.50;52.43;;;;;;;-1.00;83.11;102423.05;1698881;83;21128;-73
2021/03/02 03:01:09;;;;;;;116.60;52.20;;;;;;;-1.06;83.11;102420.63;1698809;83;21969;-73
2021/03/02 03:03:36;;;;;;;113.68;51.15;;;;;;;-1.09;83.12;102420.72;1698899;83;21305;-73
2021/03/02 03:06:05;;;;;;;118.22;49.75;;;;;;;-1.10;83.16;102423.78;1698848;84;21188;-73
2021/03/02 03:08:32;;;;;;;124.13;53.87;;;;;;;-1.08;83.14;102423.72;1699220;83;21241;-73
2021/03/02 03:11:00;;;;;;;112.85;48.70;;;;;;;-1.14;83.12;102419.98;1699027;84;21093;-73
2021/03/02 03:13:31;;;;;;;144.37;62.53;;;;;;;-1.16;83.15;102416.57;1698877;83;21112;-73
2021/03/02 03:15:59;;;;;;;138.92;59.98;;;;;;;-1.19;83.14;102412.27;1684732;84;21267;-73
2021/03/02 03:18:30;;;;;;;106.95;50.50;;;;;;;-1.15;83.14;102413.03;1698810;83;21140;-73
2021/03/02 03:20:59;;;;;;;113.28;48.50;;;;;;;-1.18;83.09;102417.05;1698781;83;21168;-73
2021/03/02 03:23:26;;;;;;;74.53;36.58;;;;;;;-1.21;83.12;102414.53;1684749;84;21176;-73
2021/03/02 03:25:53;;;;;;;104.20;46.33;;;;;;;-1.24;83.16;102423.78;1698945;83;21573;-73
2021/03/02 03:28:20;;;;;;;114.37;48.45;;;;;;;-1.29;83.17;102428.28;1684810;84;22142;-73
2021/03/02 03:30:47;;;;;;;118.45;48.95;;;;;;;-1.35;83.14;102425.41;1698894;83;21606;-73
2021/03/02 03:33:13;;;;;;;105.52;46.45;;;;;;;-1.34;83.15;102423.65;1698963;84;21156;-73
2021/03/02 03:35:41;;;;;;;106.92;47.05;;;;;;;-1.31;83.17;102431.41;1698799;83;21148;-73
2021/03/02 03:38:07;;;;;;;114.32;53.25;;;;;;;-1.31;83.18;102428.79;1699192;83;21145;-73
2021/03/02 03:40:34;;;;;;;128.35;53.73;;;;;;;-1.33;83.19;102430.13;1698825;83;21578;-74
2021/03/02 03:43:01;;;;;;;126.53;59.15;;;;;;;-1.29;83.18;102433.52;1698925;84;21136;-74
2021/03/02 03:45:27;;;;;;;120.05;54.05;;;;;;;-1.34;83.16;102434.98;1697573;84;21145;-74
2021/03/02 03:47:55;;;;;;;133.90;57.03;;;;;;;-1.39;83.15;102434.69;1695405;84;21573;-74
2021/03/02 03:50:22;;;;;;;129.42;55.55;;;;;;;-1.45;83.17;102429.19;1695466;84;21140;-74
2021/03/02 03:52:58;;;;;;;116.97;50.88;;;;;;;-1.44;83.17;102423.52;1695300;84;21160;-74
2021/03/02 03:55:27;;;;;;;111.25;49.35;;;;;;;-1.45;83.19;102424.41;1695574;84;21196;-74
2021/03/02 03:57:54;;;;;;;98.10;45.78;;;;;;;-1.50;83.20;102432.38;1677474;84;21149;-74
2021/03/02 04:00:21;;;;;;;111.42;48.73;;;;;;;-1.56;83.21;102422.95;1695476;84;21173;-74
2021/03/02 04:02:47;;;;;;;113.05;49.20;;;;;;;-1.59;83.21;102419.13;1695603;84;21160;-74
2021/03/02 04:05:15;;;;;;;114.72;51.13;;;;;;;-1.56;83.22;102417.72;1695259;84;21213;-74
2021/03/02 04:07:41;;;;;;;142.55;58.95;;;;;;;-1.53;83.18;102411.09;1695406;84;21589;-74
2021/03/02 04:10:09;;;;;;;175.50;76.07;;;;;;;-1.52;83.16;102411.51;1695309;84;21180;-74
2021/03/02 04:12:41;;;;;;;150.30;65.10;;;;;;;-1.54;83.17;102417.22;1695537;84;21558;-74
2021/03/02 04:15:14;;;;;;;150.55;63.65;;;;;;;-1.57;83.18;102417.30;1695120;84;21153;-74
2021/03/02 04:17:52;;;;;;;147.80;69.42;;;;;;;-1.61;83.19;102416.98;1695348;84;22152;-74
2021/03/02 04:20:18;;;;;;;157.52;69.77;;;;;;;-1.65;83.20;102422.33;1669802;83;21132;-74
2021/03/02 04:22:44;;;;;;;146.18;64.42;;;;;;;-1.66;83.21;102428.04;1695235;84;21204;-74
2021/03/02 04:25:11;;;;;;;126.15;54.63;;;;;;;-1.70;83.17;102422.48;1695358;84;21228;-74
2021/03/02 04:27:38;;;;;;;129.38;57.05;;;;;;;-1.72;83.16;102419.03;1695196;83;21594;-73
2021/03/02 04:30:06;;;;;;;132.82;59.80;;;;;;;-1.74;83.17;102419.53;1695335;84;21213;-72
2021/03/02 04:32:32;;;;;;;149.23;65.95;;;;;;;-1.70;83.17;102425.09;1695289;84;21224;-72
2021/03/02 04:34:58;;;;;;;152.30;68.90;;;;;;;-1.70;83.20;102417.25;1695319;84;21136;-72
2021/03/02 04:37:25;;;;;;;125.92;57.00;;;;;;;-1.68;83.22;102415.44;1695394;84;21113;-72
2021/03/02 04:39:51;;;;;;;131.80;55.98;;;;;;;-1.69;83.23;102413.71;1695472;84;21146;-72
2021/03/02 04:42:17;;;;;;;142.68;60.05;;;;;;;-1.67;83.25;102412.38;1695584;83;22102;-72
2021/03/02 04:44:44;;;;;;;126.95;55.28;;;;;;;-1.64;83.23;102411.84;1695147;84;21177;-72
2021/03/02 04:47:10;;;;;;;122.72;56.92;;;;;;;-1.65;83.23;102423.19;1695302;84;21207;-72
2021/03/02 04:49:36;;;;;;;140.05;59.63;;;;;;;-1.71;83.24;102423.37;1695177;84;21117;-72
2021/03/02 04:52:03;;;;;;;128.05;55.28;;;;;;;-1.78;83.29;102411.36;1695479;84;21141;-73
2021/03/02 04:54:29;;;;;;;131.90;59.73;;;;;;;-1.80;83.27;102407.08;1695559;84;21214;-73
2021/03/02 04:56:55;;;;;;;125.42;56.23;;;;;;;-1.80;83.26;102405.78;1695235;84;21554;-73
2021/03/02 04:59:21;;;;;;;126.15;50.95;;;;;;;-1.81;83.22;102400.99;1695539;84;21140;-73
2021/03/02 05:01:48;;;;;;;120.75;53.48;;;;;;;-1.84;83.23;102400.22;1695304;83;21585;-73
2021/03/02 05:04:14;;;;;;;112.83;49.98;;;;;;;-1.82;83.24;102403.19;1695287;84;21185;-72
2021/03/02 05:06:40;;;;;;;122.05;55.28;;;;;;;-1.82;83.24;102400.58;1695341;84;21208;-73
2021/03/02 05:09:07;;;;;;;137.95;63.42;;;;;;;-1.78;83.26;102402.66;1695410;84;21590;-72
2021/03/02 05:11:33;;;;;;;133.72;58.70;;;;;;;-1.75;83.23;102408.66;1695462;84;21168;-74
2021/03/02 05:13:59;;;;;;;117.53;51.05;;;;;;;-1.79;83.27;102404.41;1695347;84;21633;-74
2021/03/02 05:16:26;;;;;;;117.93;53.75;;;;;;;-1.77;83.25;102397.39;1695490;84;21164;-73
2021/03/02 05:18:52;;;;;;;127.82;52.73;;;;;;;-1.76;83.22;102394.34;1695174;84;21205;-77
2021/03/02 05:21:18;;;;;;;122.02;53.30;;;;;;;-1.78;83.24;102394.81;1695299;84;21244;-72
2021/03/02 05:23:44;;;;;;;127.00;55.88;;;;;;;-1.79;83.21;102385.24;1695338;84;21141;-73
2021/03/02 05:26:11;;;;;;;113.55;51.53;;;;;;;-1.79;83.24;102388.72;1695324;84;21161;-71
2021/03/02 05:28:37;;;;;;;120.92;51.75;;;;;;;-1.80;83.25;102389.64;1695380;84;21124;-72
2021/03/02 05:31:03;;;;;;;118.02;50.52;;;;;;;-1.81;83.24;102393.15;1695361;84;21205;-72
2021/03/02 05:33:30;;;;;;;107.37;49.53;;;;;;;-1.83;83.26;102395.41;1695338;84;21656;-72
2021/03/02 05:35:56;;;;;;;120.08;53.90;;;;;;;-1.83;83.28;102402.77;1695347;84;21160;-72
2021/03/02 05:38:22;;;;;;;102.35;48.17;;;;;;;-1.86;83.27;102400.25;1695331;84;21157;-73
2021/03/02 05:40:49;;;;;;;100.07;44.63;;;;;;;-1.87;83.25;102406.40;1695387;84;21129;-73
2021/03/02 05:43:15;;;;;;;97.57;48.20;;;;;;;-1.88;83.26;102408.59;1695433;84;21581;-73
2021/03/02 05:45:44;;;;;;;108.83;51.68;;;;;;;-1.87;83.25;102414.24;1695198;84;21184;-73
2021/03/02 05:48:11;;;;;;;113.05;53.05;;;;;;;-1.86;83.26;102415.07;1695300;84;21208;-73
2021/03/02 05:50:37;;;;;;;113.28;53.17;;;;;;;-1.88;83.23;102415.12;1695477;84;21236;-73
2021/03/02 05:53:04;;;;;;;106.32;49.85;;;;;;;-1.87;83.25;102416.86;1695307;84;21168;-73
2021/03/02 05:55:30;;;;;;;103.97;49.58;;;;;;;-1.80;83.23;102426.25;1695537;84;21181;-73
2021/03/02 05:57:56;;;;;;;137.32;69.22;;;;;;;-1.74;83.25;102423.46;1695007;84;21602;-73
2021/03/02 06:00:23;;;;;;;106.25;53.90;;;;;;;-1.68;83.25;102430.27;1695352;84;21200;-73
2021/03/02 06:02:50;;;;;;;106.78;55.00;;;;;;;-1.67;83.26;102430.23;1695230;84;21156;-73
2021/03/02 06:05:16;;;;;;;106.35;47.65;;;;;;;-1.60;83.27;102420.02;1695573;84;21132;-73
2021/03/02 06:07:42;;;;;;;98.33;46.37;;;;;;;-1.53;83.27;102422.86;1695294;84;21215;-73
2021/03/02 06:10:10;;;;;;;94.67;47.95;;;;;;;-1.45;83.27;102425.71;1701450;83;21208;-73
2021/03/02 06:12:54;;;;;;;93.75;44.77;;;;;;;-1.38;83.27;102428.56;1712199;83;21078;-73
2021/03/02 06:15:21;;;;;;;96.30;45.52;;;;;;;-1.34;83.27;102430.19;1710656;81;21167;-73
2021/03/02 06:17:48;;;;;;;100.90;44.25;;;;;;;-1.23;83.26;102421.58;1752524;81;21148;-74
2021/03/02 06:20:20;;;;;;;99.32;45.10;;;;;;;-1.03;83.26;102431.00;1752695;81;21201;-74
2021/03/02 06:22:47;;;;;;;97.35;44.73;;;;;;;-0.83;83.20;102431.23;1752868;80;21120;-74
2021/03/02 06:25:31;;;;;;;106.60;47.17;;;;;;;-0.62;83.17;102430.56;1752922;81;21155;-74
2021/03/02 06:27:57;;;;;;;124.53;49.35;;;;;;;-0.23;83.07;102432.34;1752463;81;21125;-74
2021/03/02 06:30:24;;;;;;;96.17;43.45;;;;;;;0.18;82.94;102424.35;1752994;81;21160;-74
2021/03/02 06:32:52;;;;;;;90.92;39.78;;;;;;;0.44;82.93;102432.16;1752546;81;21386;-74
2021/03/02 06:35:32;;;;;;;87.02;41.30;;;;;;;0.66;82.97;102422.19;1744871;81;21144;-74
2021/03/02 06:37:59;;;;;;;;;;;;;;;0.93;83.00;102425.08;1701374;83;21526;-74
2021/03/02 06:40:43;;;;;;;89.07;42.85;;;;;;;1.12;83.08;102420.84;1713488;81;20266;-74
2021/03/02 06:43:38;;;;;;;87.65;42.62;;;;;;;1.28;83.17;102419.31;1695599;83;21597;-74
2021/03/02 06:46:10;;;;;;;89.75;43.68;;;;;;;1.50;83.23;102418.84;1708893;83;21150;-74
2021/03/02 06:48:56;;;;;;;86.90;43.60;;;;;;;1.71;83.31;102422.37;1722057;82;21164;-74
2021/03/02 06:51:34;;;;;;;102.10;54.23;;;;;;;1.93;83.36;102426.27;1731943;82;21502;-74
2021/03/02 06:54:10;;;;;;;123.47;66.50;;;;;;;2.12;83.40;102430.27;1723705;81;21164;-74
2021/03/02 06:56:39;;;;;;;120.00;68.57;;;;;;;2.22;83.42;102424.54;1717954;82;21138;-74
2021/03/02 06:59:13;;;;;;;87.27;48.40;;;;;;;2.31;83.45;102429.42;1714355;82;22126;-74
2021/03/02 07:01:42;;;;;;;154.03;80.72;;;;;;;2.39;83.47;102430.41;1716225;82;21157;-74
2021/03/02 07:04:11;;;;;;;189.77;108.60;;;;;;;2.56;83.53;102432.28;1717998;82;21172;-74
2021/03/02 07:06:38;;;;;;;135.10;70.57;;;;;;;2.56;83.53;102432.28;1720055;82;21605;-74
2021/03/02 07:09:06;;;;;;;107.78;54.45;;;;;;;2.66;83.44;102444.11;1718045;82;21214;-74
2021/03/02 07:11:35;;;;;;;89.05;45.60;;;;;;;2.77;83.45;102447.11;1719019;82;21209;-74
2021/03/02 07:14:04;;;;;;;87.35;44.08;;;;;;;2.89;83.43;102446.53;1711856;83;21212;-74
2021/03/02 07:16:30;;;;;;;130.03;71.73;;;;;;;2.97;83.39;102443.09;1712970;83;21184;-74
2021/03/02 07:18:59;;;;;;;114.65;55.20;;;;;;;3.12;83.37;102448.12;1728616;82;21600;-75
2021/03/02 07:21:26;;;;;;;111.70;55.78;;;;;;;3.23;83.36;102449.79;1726984;82;21141;-74
2021/03/02 07:23:53;;;;;;;146.40;81.78;;;;;;;3.32;83.32;102448.02;1709411;82;22215;-74
2021/03/02 07:26:20;;;;;;;119.20;72.35;;;;;;;3.35;83.26;102444.77;1720697;82;21584;-75
2021/03/02 07:28:46;;;;;;;113.65;65.40;;;;;;;3.35;83.25;102445.23;1714383;82;21186;-74
2021/03/02 07:31:12;;;;;;;93.27;50.75;;;;;;;3.40;83.22;102449.38;1720076;82;21202;-74
2021/03/02 07:33:40;;;;;;;92.15;48.00;;;;;;;3.44;83.16;102444.81;1682205;82;21124;-74
2021/03/02 07:36:07;;;;;;;95.42;47.08;;;;;;;3.46;83.11;102447.75;1720534;82;22066;-75
2021/03/02 07:38:33;;;;;;;101.27;46.42;;;;;;;3.53;83.08;102451.80;1706279;82;21192;-74
2021/03/02 07:40:59;;;;;;;87.72;41.95;;;;;;;3.62;83.05;102448.34;1722820;82;21168;-74
2021/03/02 07:43:36;;;;;;;83.45;40.03;;;;;;;3.75;82.96;102450.30;1707755;82;21216;-75
2021/03/02 07:46:28;;;;;;;83.30;41.65;;;;;;;3.85;82.90;102446.72;1704820;82;21169;-75
2021/03/02 07:48:54;;;;;;;78.97;45.10;;;;;;;3.97;82.85;102450.08;1703992;82;21632;-74
2021/03/02 07:51:23;;;;;;;81.95;43.38;;;;;;;4.12;82.81;102462.48;1709874;82;21200;-74
2021/03/02 07:53:52;;;;;;;90.27;48.93;;;;;;;4.26;82.79;102457.81;1726533;82;21108;-74
2021/03/02 07:56:22;;;;;;;90.40;52.08;;;;;;;4.37;82.74;102455.02;1704533;82;21136;-74
2021/03/02 07:58:55;;;;;;;;;;;;;;;4.43;82.65;102450.72;1704984;82;21148;-74
2021/03/02 08:01:33;;;;;;;90.60;47.80;;;;;;;4.57;82.61;102455.77;1806286;77;23308;-74
2021/03/02 08:04:25;;;;;;;111.60;67.27;;;;;;;4.62;82.57;102460.33;1793125;79;21029;-74
2021/03/02 08:06:52;;;;;;;92.30;48.92;;;;;;;4.63;82.49;102454.12;1796582;79;22176;-73
2021/03/02 08:09:27;;;;;;;101.78;50.40;;;;;;;4.69;82.39;102455.10;1797081;79;21615;-73
2021/03/02 08:11:57;;;;;;;88.25;48.05;;;;;;;4.78;82.34;102461.23;1776068;79;21147;-73
2021/03/02 08:14:29;;;;;;;90.65;46.53;;;;;;;4.88;82.28;102457.16;1784496;79;21600;-73
2021/03/02 08:17:02;;;;;;;71.07;36.48;;;;;;;4.95;82.18;102458.54;1768347;79;21176;-73
2021/03/02 08:19:41;;;;;;;101.70;45.50;;;;;;;4.96;82.13;102462.40;1765479;81;21148;-74
2021/03/02 08:25:11;;;;;;;96.53;49.35;;;;;;;5.19;82.02;102450.58;1797767;78;22770;-74
2021/03/02 08:27:46;;;;;;;84.13;45.08;;;;;;;5.21;81.92;102460.59;1744153;81;21118;-74
2021/03/02 08:30:33;;;;;;;85.55;50.45;;;;;;;5.31;81.84;102460.45;1768795;80;21193;-74
2021/03/02 08:33:18;;;;;;;84.58;50.80;;;;;;;5.39;81.79;102466.64;1758725;80;21007;-73
2021/03/02 08:35:41;;;;;;;85.75;43.38;;;;;;;5.48;81.72;102459.07;1729655;80;21083;-74
2021/03/02 08:38:09;;;;;;;78.33;42.43;;;;;;;5.62;81.66;102466.69;1757553;81;21158;-73
2021/03/02 08:40:43;;;;;;;71.45;36.53;;;;;;;5.71;81.62;102458.20;1781143;80;21172;-73
2021/03/02 08:43:18;;;;;;;64.95;35.78;;;;;;;5.77;81.55;102457.88;1754458;80;21207;-74
2021/03/02 08:45:56;;;;;;;67.53;34.60;;;;;;;5.81;81.45;102449.64;1757778;80;21103;-74
2021/03/02 08:48:33;;;;;;;60.95;33.83;;;;;;;5.90;81.39;102460.22;1763179;80;21139;-76
2021/03/02 08:51:05;;;;;;;57.58;33.25;;;;;;;5.95;81.26;102450.19;1760996;80;21153;-74
2021/03/02 08:53:49;;;;;;;66.00;34.23;;;;;;;5.98;81.16;102456.66;1757663;81;21121;-73
2021/03/02 08:56:20;;;;;;;60.15;34.00;;;;;;;5.98;81.04;102455.34;1757510;81;22137;-73
2021/03/02 08:58:49;;;;;;;62.90;35.30;;;;;;;6.02;80.96;102455.51;1757718;81;21604;-74
2021/03/02 09:01:23;;;;;;;67.65;38.20;;;;;;;6.09;80.87;102466.12;1757696;81;21183;-73
2021/03/02 09:03:50;;;;;;;71.60;38.20;;;;;;;6.17;80.78;102458.59;1757688;81;21120;-70
2021/03/02 09:06:23;;;;;;;61.88;33.25;;;;;;;6.29;80.71;102453.90;1757701;81;21154;-71
2021/03/02 09:09:05;;;;;;;62.95;34.40;;;;;;;6.41;80.64;102453.14;1757925;80;22016;-70
2021/03/02 09:11:39;;;;;;;60.78;33.02;;;;;;;6.56;80.52;102445.20;1734253;82;21191;-70
2021/03/02 09:14:21;;;;;;;61.28;34.58;;;;;;;6.68;80.43;102448.44;1760838;80;21162;-70
2021/03/02 09:16:49;;;;;;;63.48;32.15;;;;;;;6.79;80.34;102441.50;1757593;81;21640;-73
2021/03/02 09:19:41;;;;;;;56.88;30.57;;;;;;;6.91;80.25;102445.20;1757630;81;21195;-73
2021/03/02 09:22:11;;;;;;;53.90;29.32;;;;;;;6.94;80.11;102450.30;1756331;80;22379;-73
2021/03/02 09:24:47;;;;;;;45.78;26.37;;;;;;;7.05;80.02;102451.81;1750488;81;21183;-73
2021/03/02 09:27:16;;;;;;;48.92;27.05;;;;;;;7.10;79.82;102449.73;1748487;80;21605;-73
2021/03/02 09:29:47;;;;;;;64.67;34.38;;;;;;;7.16;79.69;102449.34;1748600;81;21136;-73
2021/03/02 09:32:23;;;;;;;66.42;40.03;;;;;;;7.28;79.54;102449.86;1725693;83;21196;-74
2021/03/02 09:35:02;;;;;;;50.33;27.48;;;;;;;7.43;79.39;102451.54;1750708;81;21196;-73
2021/03/02 09:37:29;;;;;;;46.58;24.80;;;;;;;7.47;79.25;102454.38;1783782;80;21195;-73
2021/03/02 09:40:04;;;;;;;53.33;26.95;;;;;;;7.54;79.06;102447.71;1771325;80;21219;-73
2021/03/02 09:42:34;;;;;;;44.15;25.50;;;;;;;7.57;78.93;102444.00;1765591;80;21115;-73
2021/03/02 09:45:04;;;;;;;50.78;27.13;;;;;;;7.58;78.76;102443.53;1775164;80;21144;-73
2021/03/02 09:47:35;;;;;;;62.15;28.77;;;;;;;7.62;78.59;102443.70;1748672;80;22053;-73
2021/03/02 09:52:49;;;;;;;48.27;30.37;;;;;;;7.74;78.24;102448.22;1794680;77;38335;-73
2021/03/02 09:55:23;;;;;;;44.67;27.87;;;;;;;7.81;78.04;102445.53;1765806;80;21219;-73
2021/03/02 09:58:12;;;;;;;48.87;25.82;;;;;;;7.85;77.86;102448.33;1757529;80;21259;-74
2021/03/02 10:00:52;;;;;;;55.88;29.18;;;;;;;7.91;77.67;102449.28;1757068;80;21127;-73
2021/03/02 10:03:26;;;;;;;51.23;27.75;;;;;;;7.98;77.50;102457.21;1757245;80;21166;-73
2021/03/02 10:06:01;;;;;;;52.25;29.67;;;;;;;8.05;77.32;102458.50;1756904;81;21155;-72
2021/03/02 10:08:42;;;;;;;47.73;27.35;;;;;;;8.14;77.19;102457.87;1758333;80;21167;-73
2021/03/02 10:11:17;;;;;;;48.75;26.55;;;;;;;8.21;77.03;102455.17;1770454;80;21344;-73
2021/03/02 10:13:53;;;;;;;49.33;27.13;;;;;;;8.22;76.82;102455.55;1757036;81;21044;-73
2021/03/02 10:16:30;;;;;;;47.05;27.52;;;;;;;8.27;76.65;102452.59;1757380;80;21153;-73
2021/03/02 10:19:23;;;;;;;51.90;26.37;;;;;;;8.31;76.49;102449.63;1762437;80;21533;-73
2021/03/02 10:21:53;;;;;;;46.95;27.77;;;;;;;8.35;76.33;102451.13;1756956;81;21155;-73
2021/03/02 10:24:32;;;;;;;49.15;29.12;;;;;;;8.41;76.20;102457.81;1756756;81;22100;-74
2021/03/02 10:27:00;;;;;;;50.15;29.05;;;;;;;8.48;76.03;102457.30;1756823;81;21159;-73
2021/03/02 10:29:27;;;;;;;51.92;29.60;;;;;;;8.57;75.84;102453.63;1756993;81;21162;-73
2021/03/02 10:31:53;;;;;;;43.78;25.97;;;;;;;8.57;75.68;102454.48;1760923;80;21103;-73
2021/03/02 10:34:19;;;;;;;44.93;26.48;;;;;;;8.67;75.54;102456.02;1772361;80;21544;-73
2021/03/02 10:36:54;;;;;;;47.38;27.17;;;;;;;8.68;75.40;102449.75;1770890;80;21241;-73
2021/03/02 10:39:21;;;;;;;48.15;26.50;;;;;;;8.74;75.30;102449.31;1760132;80;21190;-73
2021/03/02 10:41:47;;;;;;;43.30;26.27;;;;;;;8.77;75.16;102446.43;1756868;81;21579;-73
2021/03/02 10:44:14;;;;;;;47.78;29.12;;;;;;;8.82;75.01;102446.97;1756934;81;21530;-73
2021/03/02 10:46:41;;;;;;;44.20;27.52;;;;;;;8.90;74.89;102444.63;1756972;81;21111;-73
2021/03/02 10:49:08;;;;;;;47.05;28.20;;;;;;;8.97;74.75;102440.06;1757094;81;21191;-74
2021/03/02 10:51:34;;;;;;;54.65;28.35;;;;;;;9.06;74.60;102435.05;1758764;81;21091;-74
2021/03/02 10:54:01;;;;;;;53.95;28.67;;;;;;;9.12;74.48;102435.94;1762339;80;21123;-74
2021/03/02 10:56:27;;;;;;;49.60;28.25;;;;;;;9.12;74.30;102431.47;1767289;80;21190;-74
2021/03/02 10:58:54;;;;;;;55.05;30.77;;;;;;;9.15;74.21;102429.91;1778297;80;21108;-73
2021/03/02 11:01:23;;;;;;;57.38;28.90;;;;;;;9.18;74.08;102438.17;1773422;80;21557;-73
2021/03/02 11:03:51;;;;;;;53.50;28.50;;;;;;;9.25;73.91;102437.63;1762300;80;21131;-73
2021/03/02 11:06:19;;;;;;;62.17;32.42;;;;;;;9.33;73.76;102440.56;1761874;81;21139;-73
2021/03/02 11:08:48;;;;;;;52.53;29.30;;;;;;;9.31;73.60;102436.31;1761985;80;21154;-73
2021/03/02 11:11:17;;;;;;;56.00;30.17;;;;;;;9.39;73.47;102433.44;1761935;81;21516;-73
2021/03/02 11:13:44;;;;;;;71.17;39.50;;;;;;;9.43;73.30;102428.27;1772424;80;25963;-73
2021/03/02 11:16:10;;;;;;;45.03;26.45;;;;;;;9.48;73.16;102428.79;1793245;80;21131;-73
2021/03/02 11:18:37;;;;;;;45.17;25.02;;;;;;;9.51;72.95;102423.23;1777722;80;21150;-73
2021/03/02 11:21:04;;;;;;;42.40;25.43;;;;;;;9.54;72.81;102419.00;1761824;81;21107;-74
2021/03/02 11:23:30;;;;;;;40.75;24.92;;;;;;;9.57;72.66;102421.09;1761834;81;21548;-73
2021/03/02 11:25:56;;;;;;;41.95;25.17;;;;;;;9.61;72.50;102415.88;1762064;81;21135;-73
2021/03/02 11:28:23;;;;;;;46.42;26.87;;;;;;;9.65;72.33;102417.35;1761745;81;21123;-74